Time;durP1;ratioP1;P1;durP2;ratioP2;P2;SDS_P1;SDS_P2;PMS_P1;PMS_P2;Temp;Humidity;BMP_temperature;BMP_pressure;BME280_temperature;BME280_humidity;BME280_pressure;Samples;Min_cycle;Max_cycle;Signal;HPM_P1;HPM_P2
2022/01/01 00:01:34;;;;;;;7.87;6.40;;;;;;;6.99;100.00;97384.58;1745620;81;20896;-68
2022/01/01 00:04:01;;;;;;;9.15;6.17;;;;;;;7.00;100.00;97385.35;1739786;81;21168;-60
2022/01/01 00:06:27;;;;;;;7.05;5.85;;;;;;;7.00;100.00;97383.48;1736841;81;20916;-61
2022/01/01 00:08:54;;;;;;;10.78;6.05;;;;;;;7.00;100.00;97384.02;1732504;81;21581;-63
2022/01/01 00:11:21;;;;;;;8.88;6.70;;;;;;;7.00;100.00;97394.67;1743878;81;20954;-60
2022/01/01 00:13:49;;;;;;;8.15;6.10;;;;;;;6.97;100.00;97392.06;1743949;81;20940;-60
2022/01/01 00:16:17;;;;;;;6.47;5.42;;;;;;;6.98;100.00;97380.85;1747828;82;20916;-65
2022/01/01 00:18:43;;;;;;;7.58;5.72;;;;;;;6.96;100.00;97397.65;1744220;81;21464;-64
2022/01/01 00:21:11;;;;;;;7.30;5.37;;;;;;;6.94;100.00;97391.81;1740811;81;21108;-64
2022/01/01 00:23:38;;;;;;;8.13;6.12;;;;;;;6.88;100.00;97379.87;1744369;81;21514;-64
2022/01/01 00:26:05;;;;;;;6.47;5.45;;;;;;;6.85;100.00;97399.06;1747473;81;20893;-64
2022/01/01 00:28:33;;;;;;;7.47;5.62;;;;;;;6.84;100.00;97397.50;1747497;82;20904;-64
2022/01/01 00:31:00;;;;;;;7.45;5.72;;;;;;;6.85;100.00;97395.08;1747549;82;20957;-66
2022/01/01 00:33:29;;;;;;;10.38;5.70;;;;;;;6.87;100.00;97388.95;1743925;81;21002;-66
2022/01/01 00:35:57;;;;;;;8.23;6.25;;;;;;;6.87;100.00;97397.48;1736035;81;21008;-62
2022/01/01 00:38:24;;;;;;;7.05;6.03;;;;;;;6.84;100.00;97393.50;1747425;81;20936;-68
2022/01/01 00:40:51;;;;;;;8.28;6.08;;;;;;;6.86;100.00;97403.33;1747519;82;21432;-67
2022/01/01 00:43:20;;;;;;;10.08;6.50;;;;;;;6.83;100.00;97396.42;1743967;81;21400;-62
2022/01/01 11:47:31;;;;;;;4.12;3.02;;;;;;;7.04;95.68;97706.75;1763356;77;21258;-68
2022/01/01 11:49:58;;;;;;;4.40;3.12;;;;;;;7.05;95.98;97715.52;1834704;78;20904;-64
2022/01/01 11:52:40;;;;;;;6.35;4.15;;;;;;;7.04;96.23;97711.28;1819443;79;20961;-63
2022/01/01 11:55:16;;;;;;;7.72;4.30;;;;;;;7.07;96.34;97712.04;1834494;78;21063;-62
2022/01/01 11:57:56;;;;;;;4.90;3.80;;;;;;;7.10;96.48;97700.84;1819620;78;20860;-61
2022/01/01 12:00:24;;;;;;;4.83;3.62;;;;;;;7.14;96.50;97708.54;1834525;78;21400;-63
2022/01/01 12:02:52;;;;;;;6.28;4.28;;;;;;;7.18;96.47;97693.63;1819218;78;20953;-67
2022/01/01 12:05:27;;;;;;;6.78;4.40;;;;;;;7.20;96.37;97705.59;1810579;78;21022;-65
2022/01/01 12:07:57;;;;;;;7.58;3.67;;;;;;;7.23;96.36;97692.27;1818890;78;21349;-61
2022/01/01 12:10:33;;;;;;;5.53;3.85;;;;;;;7.28;96.35;97689.55;1834445;78;21427;-63
2022/01/01 12:13:06;;;;;;;6.37;4.55;;;;;;;7.28;96.32;97697.01;1816603;78;20998;-61
2022/01/01 12:15:40;;;;;;;5.92;3.90;;;;;;;7.30;96.20;97694.09;1834070;78;20952;-67
2022/01/01 12:18:17;;;;;;;5.50;3.45;;;;;;;7.28;96.19;97692.20;1819710;79;20899;-65
2022/01/01 12:21:02;;;;;;;5.15;4.35;;;;;;;7.27;96.19;97697.30;1834603;78;21383;-69
2022/01/01 12:23:34;;;;;;;5.53;4.28;;;;;;;7.25;96.30;97707.44;1819695;78;20867;-67
2022/01/01 12:26:08;;;;;;;5.87;4.08;;;;;;;7.24;96.50;97705.83;1832085;77;21443;-66
2022/01/01 12:28:39;;;;;;;5.92;4.00;;;;;;;7.27;96.45;97702.62;1792507;79;20910;-64
2022/01/01 12:31:10;;;;;;;5.25;3.95;;;;;;;7.29;96.47;97715.13;1831873;77;20949;-61
2022/01/01 12:33:48;;;;;;;5.50;3.75;;;;;;;7.34;96.31;97729.75;1819355;78;20935;-66
2022/01/01 12:36:21;;;;;;;5.80;4.28;;;;;;;7.35;96.06;97716.67;1826681;77;20968;-69
2022/01/01 12:38:51;;;;;;;6.22;4.30;;;;;;;7.38;95.96;97720.13;1819403;79;20852;-62
2022/01/01 12:41:28;;;;;;;6.03;3.85;;;;;;;7.40;95.85;97713.45;1831460;78;20866;-66
2022/01/01 12:44:00;;;;;;;6.03;4.30;;;;;;;7.42;95.80;97707.84;1819079;78;20824;-64
2022/01/01 12:46:30;;;;;;;7.87;4.55;;;;;;;7.38;95.80;97719.60;1834475;78;21112;-65
2022/01/01 12:48:59;;;;;;;6.67;5.05;;;;;;;7.37;95.85;97721.22;1817477;78;21354;-70
2022/01/01 12:51:28;;;;;;;5.83;4.50;;;;;;;7.35;95.88;97727.34;1834425;78;20869;-60
2022/01/01 12:53:59;;;;;;;6.28;4.20;;;;;;;7.36;95.96;97730.27;1817759;78;20852;-65
2022/01/01 12:56:28;;;;;;;5.83;4.10;;;;;;;7.32;96.00;97728.71;1829130;77;20860;-62
2022/01/01 12:58:57;;;;;;;7.08;5.10;;;;;;;7.31;95.66;97736.42;1817595;78;21051;-63
2022/01/01 13:01:29;;;;;;;5.85;4.15;;;;;;;7.32;95.48;97738.56;1832266;77;20858;-61
2022/01/01 13:04:03;;;;;;;5.65;4.25;;;;;;;7.28;95.42;97744.96;1819081;78;20872;-61
2022/01/01 13:06:37;;;;;;;6.00;3.90;;;;;;;7.28;94.99;97736.97;1833302;77;21099;-66
2022/01/01 13:09:06;;;;;;;5.65;4.45;;;;;;;7.27;94.62;97730.06;1817670;79;20891;-64
2022/01/01 13:11:35;;;;;;;6.92;5.42;;;;;;;7.25;93.86;97740.73;1831799;77;21383;-69
2022/01/01 13:14:03;;;;;;;23.42;4.87;;;;;;;7.22;93.83;97740.75;1820054;78;21462;-62
2022/01/01 13:16:31;;;;;;;40.33;16.40;;;;;;;7.20;93.68;97744.75;1834311;78;21384;-66
2022/01/01 13:18:59;;;;;;;6.42;4.40;;;;;;;7.22;93.67;97745.27;1818427;78;21421;-65
2022/01/01 13:21:25;;;;;;;5.60;4.45;;;;;;;7.22;93.66;97742.61;1818449;78;21401;-68
2022/01/01 13:23:53;;;;;;;6.60;4.25;;;;;;;7.19;93.48;97759.13;1793314;79;21154;-68
2022/01/01 13:26:20;;;;;;;5.83;3.85;;;;;;;7.18;93.47;97761.55;1819020;78;21398;-64
2022/01/01 13:28:47;;;;;;;6.80;4.60;;;;;;;7.15;93.55;97758.09;1819132;78;20883;-66
2022/01/01 13:31:15;;;;;;;6.00;4.58;;;;;;;7.14;93.54;97761.81;1816005;78;20903;-64
2022/01/01 13:33:48;;;;;;;5.22;3.87;;;;;;;7.11;93.57;97762.38;1818032;79;20883;-62
2022/01/01 13:36:38;;;;;;;5.30;3.95;;;;;;;7.11;93.53;97770.37;1819242;78;21023;-68
2022/01/01 13:39:08;;;;;;;5.33;4.50;;;;;;;7.14;93.34;97765.80;1819210;78;20859;-69
2022/01/01 13:41:41;;;;;;;4.40;3.40;;;;;;;7.15;93.26;97766.08;1818944;78;20856;-62
2022/01/01 13:44:18;;;;;;;4.03;3.05;;;;;;;7.15;92.94;97768.74;1812839;78;20852;-62
2022/01/01 13:46:45;;;;;;;6.05;3.70;;;;;;;7.14;92.30;97768.47;1806309;78;20874;-64
2022/01/01 13:49:12;;;;;;;4.75;3.70;;;;;;;7.15;92.39;97780.20;1819306;79;21061;-61
2022/01/01 13:51:39;;;;;;;4.90;3.52;;;;;;;7.11;91.94;97775.70;1817639;78;21512;-64
2022/01/01 13:54:13;;;;;;;4.87;3.72;;;;;;;7.10;92.09;97790.06;1817779;78;20887;-66
2022/01/01 13:56:40;;;;;;;4.62;4.10;;;;;;;7.10;92.25;97784.21;1815363;78;20954;-67
2022/01/01 13:59:07;;;;;;;6.53;4.20;;;;;;;7.10;92.37;97782.08;1817543;78;20935;-67
2022/01/01 14:01:35;;;;;;;4.97;3.37;;;;;;;7.09;92.51;97787.93;1818984;78;21107;-70
2022/01/01 14:04:04;;;;;;;5.22;4.03;;;;;;;7.07;92.69;97794.06;1818247;78;20875;-64
2022/01/01 14:06:32;;;;;;;7.45;4.55;;;;;;;7.07;92.80;97791.41;1811574;79;20907;-64
2022/01/01 14:09:06;;;;;;;5.65;4.42;;;;;;;7.07;92.95;97793.27;1816766;78;21485;-62
2022/01/01 14:11:38;;;;;;;8.93;5.15;;;;;;;7.07;93.04;97798.59;1817776;78;20864;-68
2022/01/01 14:14:09;;;;;;;6.60;4.83;;;;;;;7.05;93.21;97794.08;1815025;78;21875;-66
2022/01/01 14:16:49;;;;;;;6.47;4.37;;;;;;;7.03;93.43;97804.20;1819536;78;20883;-65
2022/01/01 14:19:18;;;;;;;8.18;5.40;;;;;;;7.02;93.47;97799.97;1818891;78;20915;-67
2022/01/01 14:21:46;;;;;;;6.80;4.53;;;;;;;7.00;93.62;97803.41;1819117;78;20911;-66
2022/01/01 14:24:17;;;;;;;5.90;5.08;;;;;;;6.99;93.73;97800.50;1817711;78;20954;-61
2022/01/01 14:26:49;;;;;;;5.25;4.53;;;;;;;6.96;93.81;97805.83;1818760;79;21106;-66
2022/01/01 14:29:18;;;;;;;9.83;5.08;;;;;;;6.96;93.87;97805.03;1812337;78;20899;-66
2022/01/01 14:31:45;;;;;;;6.28;5.05;;;;;;;6.96;93.91;97799.70;1816860;78;20879;-66
2022/01/01 14:34:18;;;;;;;6.72;5.30;;;;;;;6.92;94.01;97807.45;1815463;78;20973;-62
2022/01/01 14:36:51;;;;;;;6.65;4.53;;;;;;;6.92;94.09;97811.97;1811596;79;20860;-63
2022/01/01 14:39:19;;;;;;;5.72;5.03;;;;;;;6.95;94.04;97814.88;1850938;77;21076;-65
2022/01/01 14:41:46;;;;;;;6.15;4.80;;;;;;;6.96;93.99;97814.34;1826237;78;20897;-67
2022/01/01 14:44:14;;;;;;;6.15;4.83;;;;;;;6.96;93.98;97808.50;1823583;78;20921;-61
2022/01/01 14:46:43;;;;;;;5.90;4.03;;;;;;;6.94;93.97;97814.63;1829064;78;20960;-62
2022/01/01 14:49:38;;;;;;;5.60;4.15;;;;;;;6.92;94.03;97814.64;1829446;78;20949;-67
2022/01/01 14:52:23;;;;;;;4.70;4.03;;;;;;;6.87;94.13;97814.92;1816993;78;21102;-64
2022/01/01 14:55:09;;;;;;;6.20;4.10;;;;;;;6.85;94.43;97821.02;1832904;77;20920;-66
2022/01/01 14:57:45;;;;;;;4.40;3.90;;;;;;;6.80;94.83;97830.38;1817838;78;20828;-67
2022/01/01 15:00:15;;;;;;;6.37;4.25;;;;;;;6.75;95.00;97836.23;1831250;77;20920;-64
2022/01/01 15:02:45;;;;;;;4.90;3.83;;;;;;;6.69;95.39;97839.42;1831517;77;20925;-66
2022/01/01 15:05:12;;;;;;;5.83;4.25;;;;;;;6.66;95.92;97841.31;1816531;78;21631;-65
2022/01/01 15:07:41;;;;;;;5.78;4.20;;;;;;;6.65;96.17;97833.58;1825737;77;20987;-62
2022/01/01 15:10:12;;;;;;;4.30;3.37;;;;;;;6.64;96.23;97842.09;1817670;78;20852;-64
2022/01/01 15:12:39;;;;;;;4.17;3.70;;;;;;;6.65;96.23;97853.02;1834355;78;20921;-64
2022/01/01 15:15:07;;;;;;;8.30;3.95;;;;;;;6.63;96.56;97844.51;1819458;78;20894;-66
2022/01/01 15:17:36;;;;;;;4.95;3.40;;;;;;;6.65;96.76;97844.23;1832637;77;21777;-64
2022/01/01 15:20:05;;;;;;;4.62;3.12;;;;;;;6.62;97.62;97850.88;1829872;77;20912;-63
2022/01/01 15:22:58;;;;;;;4.03;3.62;;;;;;;6.60;97.56;97850.36;1817977;78;20899;-64
2022/01/01 15:25:29;;;;;;;4.53;3.58;;;;;;;6.57;98.12;97864.19;1836640;77;20900;-62
2022/01/01 15:27:56;;;;;;;4.53;4.00;;;;;;;6.54;98.37;97855.95;1819325;79;20828;-63
2022/01/01 15:36:00;;;;;;;4.55;3.98;;;;;;;6.44;99.27;97860.75;1829233;78;20925;-63
2022/01/01 15:38:19;;;;;;;7.00;4.47;;;;;;;6.42;99.60;97874.85;1808580;78;20875;-67
2022/01/01 15:43:13;;;;;;;6.10;4.50;;;;;;;6.41;100.00;97874.57;1740811;79;21176;-64
2022/01/01 15:45:41;;;;;;;4.70;4.22;;;;;;;6.41;100.00;97883.08;1828879;77;21426;-61
2022/01/01 15:48:08;;;;;;;6.05;5.37;;;;;;;6.40;100.00;97883.63;1801236;77;20983;-66
2022/01/01 15:50:35;;;;;;;6.20;5.45;;;;;;;6.41;100.00;97885.22;1808168;78;20837;-61
2022/01/01 15:53:02;;;;;;;6.33;5.65;;;;;;;6.44;100.00;97886.55;1819277;78;21015;-62
2022/01/01 15:55:30;;;;;;;6.75;5.17;;;;;;;6.45;100.00;97895.61;1831847;77;21121;-62
2022/01/01 15:57:57;;;;;;;6.00;5.37;;;;;;;6.46;100.00;97899.85;1817741;78;20872;-68
2022/01/01 16:00:26;;;;;;;8.50;5.60;;;;;;;6.46;100.00;97903.04;1835499;77;20980;-65
2022/01/01 16:03:19;;;;;;;5.92;5.33;;;;;;;6.45;100.00;97898.80;1816080;78;21410;-64
2022/01/01 16:05:56;;;;;;;6.78;5.15;;;;;;;6.45;100.00;97902.27;1826227;77;20908;-60
2022/01/01 16:08:28;;;;;;;5.10;4.10;;;;;;;6.40;100.00;97903.59;1817933;78;21177;-62
2022/01/01 16:10:59;;;;;;;6.25;5.28;;;;;;;6.35;100.00;97899.59;1832019;77;20830;-69
2022/01/01 16:13:27;;;;;;;5.40;4.75;;;;;;;6.30;100.00;97904.91;1819283;78;20975;-60
2022/01/01 16:16:02;;;;;;;4.67;4.17;;;;;;;6.29;100.00;97903.84;1828181;77;21004;-63
2022/01/01 16:18:42;;;;;;;5.90;3.80;;;;;;;6.28;100.00;97908.36;1819517;79;21331;-61
2022/01/01 16:21:13;;;;;;;4.80;4.28;;;;;;;6.30;100.00;97910.22;1834547;77;21046;-65
2022/01/01 16:23:41;;;;;;;6.72;4.85;;;;;;;6.27;100.00;97911.27;1819055;78;20951;-66
2022/01/01 16:26:11;;;;;;;4.60;3.80;;;;;;;6.22;100.00;97922.70;1834356;78;20861;-63
2022/01/01 16:28:44;;;;;;;5.33;3.60;;;;;;;6.19;100.00;97917.92;1819327;78;21425;-64
2022/01/01 16:31:09;;;;;;;4.85;3.62;;;;;;;6.17;100.00;97914.18;1833369;77;20900;-68
2022/01/01 16:33:40;;;;;;;5.60;3.52;;;;;;;6.17;100.00;97920.05;1819269;79;20851;-65
2022/01/01 16:36:07;;;;;;;3.72;3.25;;;;;;;6.18;100.00;97938.92;1832010;78;20911;-69
2022/01/01 16:38:36;;;;;;;4.53;3.27;;;;;;;6.18;100.00;97944.24;1821654;78;20927;-64
2022/01/01 16:41:35;;;;;;;3.92;3.10;;;;;;;6.15;100.00;97954.06;1833157;77;20924;-62
2022/01/01 16:44:15;;;;;;;6.40;3.60;;;;;;;6.11;100.00;97951.15;1819340;78;20919;-65
2022/01/01 16:46:49;;;;;;;4.45;3.62;;;;;;;6.08;100.00;97956.17;1827445;77;21112;-64
2022/01/01 16:49:23;;;;;;;5.30;3.40;;;;;;;6.09;100.00;97964.44;1848932;77;21355;-61
2022/01/01 16:51:55;;;;;;;4.20;3.08;;;;;;;6.09;100.00;97968.42;1826285;77;20885;-61
2022/01/01 16:54:22;;;;;;;6.83;3.45;;;;;;;6.07;99.97;97970.55;1819205;78;20903;-66
2022/01/01 16:56:58;;;;;;;4.25;3.85;;;;;;;6.05;99.90;97984.64;1831697;78;21573;-64
2022/01/01 16:59:25;;;;;;;3.77;2.80;;;;;;;6.03;99.92;97980.12;1816315;78;21105;-64
2022/01/01 17:01:55;;;;;;;3.50;2.58;;;;;;;6.02;99.49;97990.47;1833052;77;20901;-62
2022/01/01 17:04:24;;;;;;;6.92;2.98;;;;;;;6.00;99.31;97996.58;1836654;78;21459;-62
2022/01/01 17:06:52;;;;;;;3.62;2.62;;;;;;;5.99;99.29;97998.95;1816271;78;20918;-60
2022/01/01 17:09:24;;;;;;;3.62;2.40;;;;;;;5.94;98.92;97993.09;1830601;77;21949;-64
2022/01/01 17:11:48;;;;;;;3.10;2.22;;;;;;;5.92;98.76;98006.38;1812462;78;21116;-67
2022/01/01 17:14:16;;;;;;;4.17;2.02;;;;;;;5.89;98.52;98014.86;1830925;77;20857;-66
2022/01/01 17:17:01;;;;;;;3.00;2.30;;;;;;;5.88;98.54;98023.39;1795314;79;21386;-65
2022/01/01 17:19:45;;;;;;;2.98;2.52;;;;;;;5.87;98.12;98028.42;1833769;77;20890;-64
2022/01/01 17:22:35;;;;;;;4.25;2.33;;;;;;;5.85;98.11;98028.41;1832527;77;20984;-65
2022/01/01 17:25:09;;;;;;;5.33;1.98;;;;;;;5.83;97.84;98037.14;1819583;78;21141;-66
2022/01/01 17:27:48;;;;;;;4.62;2.22;;;;;;;5.80;97.73;98038.45;1831485;77;20865;-67
2022/01/01 17:30:16;;;;;;;2.98;1.90;;;;;;;5.79;97.59;98049.36;1817725;78;20912;-64
2022/01/01 17:32:49;;;;;;;3.30;2.30;;;;;;;5.76;97.32;98053.85;1831799;77;21399;-60
2022/01/01 17:40:31;;;;;;;2.95;2.20;;;;;;;5.65;96.86;98065.48;1774613;78;21018;-69
2022/01/01 17:42:58;;;;;;;3.65;2.30;;;;;;;5.63;96.91;98074.25;1826513;78;20905;-62
2022/01/01 17:45:27;;;;;;;4.78;2.35;;;;;;;5.58;96.44;98066.24;1826207;78;20900;-61
2022/01/01 17:47:54;;;;;;;3.75;2.00;;;;;;;5.53;96.26;98076.31;1793020;78;21371;-67
2022/01/01 17:50:23;;;;;;;3.65;1.90;;;;;;;5.45;96.08;98073.59;1825121;78;21094;-62
2022/01/01 17:52:49;;;;;;;3.12;2.27;;;;;;;5.39;95.87;98079.13;1826881;78;21522;-62
2022/01/01 17:55:19;;;;;;;5.60;2.30;;;;;;;5.31;95.28;98078.27;1825047;78;20899;-61
2022/01/01 17:57:45;;;;;;;2.80;1.90;;;;;;;5.25;95.09;98080.06;1827525;78;20889;-69
2022/01/01 18:00:13;;;;;;;3.40;2.00;;;;;;;5.21;94.81;98088.27;1800993;78;20940;-61
2022/01/01 18:02:44;;;;;;;3.25;1.85;;;;;;;5.20;94.69;98080.05;1829089;78;21690;-62
2022/01/01 18:05:11;;;;;;;3.33;2.33;;;;;;;5.22;94.59;98093.88;1817555;78;20903;-68
2022/01/01 18:07:51;;;;;;;4.25;2.15;;;;;;;5.23;94.54;98083.50;1820223;78;20944;-64
2022/01/01 18:10:22;;;;;;;4.40;2.62;;;;;;;5.23;94.47;98090.14;1817790;78;20883;-66
2022/01/01 18:12:53;;;;;;;3.85;1.87;;;;;;;5.20;94.26;98088.02;1831832;77;20921;-68
2022/01/01 18:15:21;;;;;;;3.30;2.15;;;;;;;5.19;93.61;98090.91;1832280;77;21086;-68
2022/01/01 18:17:58;;;;;;;3.58;2.10;;;;;;;5.15;93.16;98091.14;1818919;78;20899;-62
2022/01/01 18:20:25;;;;;;;4.35;1.82;;;;;;;5.14;92.88;98101.48;1833055;77;21240;-66
2022/01/01 18:22:58;;;;;;;3.17;2.17;;;;;;;5.14;92.91;98103.61;1819764;78;21385;-66
2022/01/01 18:25:37;;;;;;;4.60;2.20;;;;;;;5.14;92.86;98102.80;1833050;77;21392;-68
2022/01/01 18:28:34;;;;;;;5.75;2.40;;;;;;;5.13;92.39;98107.34;1830327;77;21071;-64
2022/01/01 18:31:05;;;;;;;4.33;2.40;;;;;;;5.15;92.04;98104.42;1819452;79;21461;-63
2022/01/01 18:33:32;;;;;;;4.03;2.47;;;;;;;5.12;91.82;98115.02;1829538;77;21419;-67
2022/01/01 18:35:59;;;;;;;8.30;3.00;;;;;;;5.12;91.68;98115.02;1830983;77;20869;-65
2022/01/01 18:38:31;;;;;;;3.72;2.30;;;;;;;5.12;91.65;98124.31;1813408;78;20863;-63
2022/01/01 18:40:58;;;;;;;4.03;2.27;;;;;;;5.13;91.45;98128.58;1829242;77;21396;-64
2022/01/01 18:43:29;;;;;;;3.33;2.08;;;;;;;5.11;91.12;98126.67;1818815;78;20895;-67
2022/01/01 18:45:57;;;;;;;2.90;1.87;;;;;;;5.08;90.82;98139.15;1834937;78;20849;-65
2022/01/01 18:48:24;;;;;;;3.12;2.15;;;;;;;5.07;90.44;98134.88;1816782;78;20907;-62
2022/01/01 18:51:14;;;;;;;3.75;1.95;;;;;;;5.03;90.16;98135.11;1832617;77;20996;-60
2022/01/01 18:53:52;;;;;;;4.10;1.80;;;;;;;5.01;90.16;98136.42;1819126;78;21087;-63
2022/01/01 18:56:26;;;;;;;2.67;1.90;;;;;;;5.01;90.22;98153.16;1833488;77;20873;-65
2022/01/01 18:59:00;;;;;;;4.30;1.90;;;;;;;4.99;90.24;98161.89;1816726;78;20881;-66
2022/01/01 19:01:32;;;;;;;4.03;1.65;;;;;;;4.99;90.25;98156.59;1831863;78;20826;-65
2022/01/01 19:04:01;;;;;;;2.90;1.57;;;;;;;4.99;89.07;98169.05;1819216;78;21362;-65
2022/01/01 19:06:34;;;;;;;3.15;1.60;;;;;;;4.97;89.10;98170.61;1835246;77;21657;-60
2022/01/01 19:09:01;;;;;;;3.00;1.60;;;;;;;4.93;88.82;98169.52;1815014;78;20875;-68
2022/01/01 19:11:38;;;;;;;3.77;1.77;;;;;;;4.92;88.21;98168.45;1831820;77;20892;-62
2022/01/01 19:14:09;;;;;;;3.22;1.82;;;;;;;4.89;87.81;98179.03;1819285;78;20840;-64
2022/01/01 19:16:38;;;;;;;3.10;1.92;;;;;;;4.88;87.86;98177.42;1831661;77;21395;-62
2022/01/01 19:19:06;;;;;;;2.33;1.42;;;;;;;4.87;87.49;98189.10;1816435;78;21171;-67
2022/01/01 19:21:34;;;;;;;2.70;1.80;;;;;;;4.85;87.21;98186.67;1829168;77;21457;-67
2022/01/01 19:24:06;;;;;;;2.77;1.80;;;;;;;4.83;87.26;98190.62;1818904;78;20914;-65
2022/01/01 19:26:32;;;;;;;3.22;1.60;;;;;;;4.80;87.12;98198.55;1835779;77;21024;-62
2022/01/01 19:29:02;;;;;;;3.83;1.85;;;;;;;4.77;86.55;98199.08;1815764;78;21042;-63
2022/01/01 19:31:31;;;;;;;3.50;1.80;;;;;;;4.76;86.16;98200.63;1832760;77;20968;-61
2022/01/01 19:33:59;;;;;;;3.98;2.00;;;;;;;4.71;86.06;98214.64;1816398;78;20918;-62
2022/01/01 19:36:26;;;;;;;4.75;1.67;;;;;;;4.69;85.67;98197.36;1824849;78;20858;-63
2022/01/01 19:38:53;;;;;;;1.95;1.20;;;;;;;4.68;85.38;98215.67;1815079;78;21391;-62
2022/01/01 19:41:52;;;;;;;1.27;0.93;;;;;;;4.67;84.71;98224.67;1824932;78;21011;-66
2022/01/01 19:44:28;;;;;;;3.25;1.60;;;;;;;4.66;83.95;98219.10;1833595;78;21115;-63
2022/01/01 19:47:05;;;;;;;2.85;1.40;;;;;;;4.63;83.79;98231.53;1819373;78;20859;-62
2022/01/01 19:49:43;;;;;;;2.12;1.50;;;;;;;4.58;84.15;98233.59;1829380;77;20956;-63
2022/01/01 19:52:10;;;;;;;2.70;1.22;;;;;;;4.54;83.43;98244.42;1828013;77;21086;-67
2022/01/01 19:54:38;;;;;;;2.33;1.10;;;;;;;4.50;83.29;98251.25;1819362;79;20871;-61
2022/01/01 19:57:05;;;;;;;1.57;1.10;;;;;;;4.47;83.13;98261.04;1834482;78;21110;-61
2022/01/01 19:59:33;;;;;;;2.67;1.02;;;;;;;4.48;83.22;98261.81;1817084;78;20915;-63
2022/01/01 20:02:00;;;;;;;2.42;1.47;;;;;;;4.43;82.80;98261.77;1832141;78;20992;-62
2022/01/01 20:04:27;;;;;;;1.57;1.12;;;;;;;4.38;82.84;98273.63;1817889;78;20883;-66
2022/01/01 20:06:54;;;;;;;1.30;0.98;;;;;;;4.35;82.90;98270.13;1831218;78;20967;-70
2022/01/01 20:09:21;;;;;;;2.33;1.00;;;;;;;4.30;82.58;98275.36;1829404;78;21847;-66
2022/01/01 20:11:48;;;;;;;1.67;1.10;;;;;;;4.25;82.75;98272.63;1826434;78;20970;-61
2022/01/01 20:14:16;;;;;;;3.85;1.12;;;;;;;4.20;82.86;98274.68;1822116;78;20836;-62
2022/01/01 20:16:44;;;;;;;2.25;0.85;;;;;;;4.18;83.06;98277.30;1826826;78;21032;-62
2022/01/01 20:19:14;;;;;;;3.35;0.88;;;;;;;4.17;82.91;98281.00;1819305;79;20935;-61
2022/01/01 20:21:42;;;;;;;2.22;0.88;;;;;;;4.15;83.00;98283.88;1833249;77;21416;-68
2022/01/01 20:24:09;;;;;;;1.52;1.00;;;;;;;4.13;82.76;98296.58;1835269;78;20947;-68
2022/01/01 20:26:40;;;;;;;1.00;0.80;;;;;;;4.13;82.94;98289.95;1819354;78;20871;-67
2022/01/01 20:29:06;;;;;;;2.37;1.20;;;;;;;4.11;82.74;98296.02;1834469;77;21548;-64
2022/01/01 20:31:33;;;;;;;2.20;1.00;;;;;;;4.11;82.90;98306.11;1817424;78;20911;-64
2022/01/01 20:34:00;;;;;;;1.42;0.90;;;;;;;4.08;82.94;98307.91;1827788;77;21092;-60
2022/01/01 20:36:27;;;;;;;2.45;0.90;;;;;;;4.08;82.91;98321.16;1835048;77;21474;-68
2022/01/01 20:38:53;;;;;;;1.07;0.60;;;;;;;4.06;83.23;98316.63;1819348;78;20907;-65
2022/01/01 20:41:20;;;;;;;1.40;0.80;;;;;;;4.04;83.19;98325.34;1834518;77;20956;-63
2022/01/01 20:43:48;;;;;;;1.40;0.80;;;;;;;4.03;83.26;98329.02;1819295;79;20867;-64
2022/01/01 20:46:15;;;;;;;4.53;1.42;;;;;;;4.02;83.27;98327.44;1834396;77;21805;-64
2022/01/01 20:48:44;;;;;;;1.37;0.78;;;;;;;3.97;83.33;98343.25;1819221;78;20891;-66
2022/01/01 20:51:11;;;;;;;2.87;1.10;;;;;;;3.95;83.53;98347.17;1828946;77;20915;-66
2022/01/01 20:53:38;;;;;;;2.52;0.95;;;;;;;3.89;83.73;98352.91;1820486;78;21409;-68
2022/01/01 20:56:05;;;;;;;1.57;0.80;;;;;;;3.84;83.83;98350.16;1830430;77;20866;-65
2022/01/01 20:58:31;;;;;;;2.98;1.10;;;;;;;3.80;84.06;98347.70;1816205;78;21489;-63
2022/01/01 21:00:58;;;;;;;2.60;1.00;;;;;;;3.75;84.23;98358.21;1834341;78;20865;-60
2022/01/01 21:03:27;;;;;;;1.60;0.82;;;;;;;3.71;84.20;98366.36;1817760;78;20867;-62
2022/01/01 21:06:01;;;;;;;1.57;0.95;;;;;;;3.69;84.28;98366.31;1834411;78;21518;-62
2022/01/01 21:08:28;;;;;;;1.60;1.00;;;;;;;3.64;84.21;98376.30;1790549;78;20899;-65
2022/01/01 21:10:56;;;;;;;1.92;1.05;;;;;;;3.58;84.38;98372.47;1830956;77;21104;-63
2022/01/01 21:13:24;;;;;;;2.98;1.20;;;;;;;3.55;84.32;98372.42;1830907;77;21400;-67
2022/01/01 21:15:50;;;;;;;1.65;1.10;;;;;;;3.51;84.23;98391.13;1817210;78;20895;-64
2022/01/01 21:18:18;;;;;;;1.35;0.98;;;;;;;3.48;84.34;98389.48;1827123;77;20962;-64
2022/01/01 21:20:45;;;;;;;1.95;1.27;;;;;;;3.45;84.42;98392.08;1816592;78;20911;-62
2022/01/01 21:23:13;;;;;;;2.58;1.27;;;;;;;3.44;84.50;98387.80;1832761;77;21105;-66
2022/01/01 21:25:41;;;;;;;1.55;1.00;;;;;;;3.44;84.67;98388.61;1829685;77;20919;-61
2022/01/01 21:28:08;;;;;;;1.40;1.00;;;;;;;3.45;84.69;98398.69;1833046;78;20862;-66
2022/01/01 21:30:37;;;;;;;1.02;0.90;;;;;;;3.45;84.54;98397.38;1820273;78;20832;-63
2022/01/01 21:33:03;;;;;;;2.12;1.07;;;;;;;3.46;84.71;98400.31;1816482;78;20919;-65
2022/01/01 21:35:30;;;;;;;2.15;0.90;;;;;;;3.46;84.65;98404.29;1833585;77;21109;-62
2022/01/01 21:37:57;;;;;;;2.15;1.02;;;;;;;3.43;84.73;98402.09;1815234;78;21442;-62
2022/01/01 21:40:25;;;;;;;2.37;1.10;;;;;;;3.37;84.79;98406.48;1831612;77;20940;-62
2022/01/01 21:42:53;;;;;;;2.40;0.88;;;;;;;3.35;84.72;98411.72;1816203;78;20919;-63
2022/01/01 21:45:20;;;;;;;2.12;1.07;;;;;;;3.30;84.77;98420.88;1834858;78;21499;-62
2022/01/01 21:47:47;;;;;;;1.65;0.95;;;;;;;3.26;84.84;98426.36;1826438;78;21105;-67
2022/01/01 21:50:14;;;;;;;4.62;1.00;;;;;;;3.25;85.00;98436.69;1824972;78;21456;-65
2022/01/01 21:52:44;;;;;;;2.45;1.10;;;;;;;3.22;84.95;98426.55;1823243;78;20874;-63
2022/01/01 21:55:13;;;;;;;1.25;1.00;;;;;;;3.18;85.27;98428.06;1822881;78;20933;-67
2022/01/01 21:57:40;;;;;;;2.65;1.20;;;;;;;3.15;85.39;98439.10;1829198;78;20949;-61
2022/01/01 22:00:08;;;;;;;3.08;1.00;;;;;;;3.14;85.54;98438.80;1817759;78;21096;-62
2022/01/01 22:02:36;;;;;;;1.95;1.20;;;;;;;3.13;85.75;98453.87;1831937;77;20900;-67
2022/01/01 22:05:04;;;;;;;1.55;0.85;;;;;;;3.12;85.88;98459.41;1819289;79;20871;-68
2022/01/01 22:07:31;;;;;;;1.25;0.80;;;;;;;3.09;86.09;98458.54;1829157;78;20881;-70
2022/01/01 22:09:58;;;;;;;1.65;0.85;;;;;;;3.08;86.26;98462.23;1819235;78;20906;-64
2022/01/01 22:12:25;;;;;;;1.95;0.90;;;;;;;3.09;86.38;98457.21;1834402;78;21106;-65
2022/01/01 22:14:52;;;;;;;2.05;1.07;;;;;;;3.10;86.62;98456.19;1819167;78;20872;-65
2022/01/01 22:17:21;;;;;;;1.62;1.02;;;;;;;3.09;86.80;98461.19;1834367;77;20940;-61
2022/01/01 22:19:47;;;;;;;2.58;1.40;;;;;;;3.10;86.92;98466.78;1819239;78;20946;-60
2022/01/01 22:22:14;;;;;;;1.90;1.02;;;;;;;3.08;87.16;98469.66;1826807;78;20898;-63
2022/01/01 22:24:44;;;;;;;1.72;0.93;;;;;;;3.10;87.26;98464.95;1827039;78;21109;-62
2022/01/01 22:27:13;;;;;;;2.17;1.42;;;;;;;3.13;87.34;98470.30;1829173;78;21032;-66
2022/01/01 22:29:40;;;;;;;2.30;0.90;;;;;;;3.18;87.34;98490.27;1829028;78;20957;-67
2022/01/01 22:32:08;;;;;;;2.05;1.30;;;;;;;3.20;87.38;98488.97;1829201;78;20885;-66
2022/01/01 22:34:35;;;;;;;2.15;1.32;;;;;;;3.17;87.47;98487.32;1829140;78;20873;-66
2022/01/01 22:37:03;;;;;;;2.70;1.05;;;;;;;3.17;87.59;98492.61;1826571;78;21949;-71
2022/01/01 22:39:29;;;;;;;2.27;0.88;;;;;;;3.15;87.10;98503.44;1818264;78;21408;-66
2022/01/01 22:41:57;;;;;;;1.07;0.65;;;;;;;3.14;87.00;98501.01;1818550;78;20868;-63
2022/01/01 22:44:24;;;;;;;1.50;0.95;;;;;;;3.12;86.90;98503.08;1831852;77;20905;-66
2022/01/01 22:46:51;;;;;;;1.62;0.90;;;;;;;3.11;86.99;98506.23;1818436;78;20918;-64
2022/01/01 22:49:19;;;;;;;1.82;1.00;;;;;;;3.11;87.09;98508.11;1828851;77;21396;-61
2022/01/01 22:51:45;;;;;;;1.12;0.85;;;;;;;3.12;87.19;98517.64;1834548;77;20920;-61
2022/01/01 22:54:12;;;;;;;1.92;1.27;;;;;;;3.15;87.22;98527.78;1817463;78;20947;-64
2022/01/01 22:56:39;;;;;;;1.95;1.07;;;;;;;3.15;87.14;98534.39;1826833;77;20889;-67
2022/01/01 22:59:06;;;;;;;1.45;0.98;;;;;;;3.13;87.18;98546.52;1819495;79;20887;-64
2022/01/01 23:01:34;;;;;;;1.37;0.90;;;;;;;3.13;87.27;98549.70;1831526;77;21108;-62
2022/01/01 23:04:01;;;;;;;2.95;1.00;;;;;;;3.14;87.27;98546.81;1828365;77;20959;-62
2022/01/01 23:06:28;;;;;;;1.35;0.90;;;;;;;3.13;87.12;98550.48;1819378;78;20906;-64
2022/01/01 23:08:56;;;;;;;2.05;0.90;;;;;;;3.11;86.99;98539.33;1828954;77;21281;-67
2022/01/01 23:11:23;;;;;;;1.80;0.90;;;;;;;3.08;87.04;98536.34;1816893;78;20915;-67